RYR77UX LOWW-LIME
Flight info
| Callsign | RYR77UX |
|---|---|
| Flight time | 1h 1m |
| Altitude | 33000 |
| Route | OSPEN DCT ABRUK DCT SETAL DCT DETSA DCT RENTA M984 LUSIL T772 EKLIB |
| Aircraft | A320/M-SDE3FGHIRWY/LB1 |
Departure
| Time | 2026-04-21 18:21 |
|---|---|
| Airport | Vienna International Airport (LOWW) |
Arrival
| Time | 2026-04-21 19:23 |
|---|---|
| Airport | Il Caravaggio International Airport (LIME) |
| Time | Latitude | Longitude | Altitude | Speed | Heading |
|---|---|---|---|---|---|
| 2026-04-21 17:59 | 48.12121 | 16.55690 | 619 ft | 0 kts | 116° |
| 2026-04-21 18:13 | 48.12128 | 16.55669 | 620 ft | 4 kts | 113° |
| 2026-04-21 18:13 | 48.12138 | 16.55631 | 621 ft | 4 kts | 111° |
| 2026-04-21 18:13 | 48.12149 | 16.55595 | 618 ft | 4 kts | 124° |
| 2026-04-21 18:13 | 48.12149 | 16.55588 | 622 ft | 4 kts | 145° |
| 2026-04-21 18:14 | 48.12106 | 16.55575 | 624 ft | 0 kts | 206° |
| 2026-04-21 18:16 | 48.12103 | 16.55573 | 623 ft | 2 kts | 206° |
| 2026-04-21 18:16 | 48.12066 | 16.55546 | 611 ft | 9 kts | 205° |
| 2026-04-21 18:17 | 48.12000 | 16.55499 | 616 ft | 10 kts | 205° |
| 2026-04-21 18:17 | 48.11938 | 16.55454 | 614 ft | 10 kts | 206° |
| 2026-04-21 18:17 | 48.11864 | 16.55430 | 609 ft | 11 kts | 189° |
| 2026-04-21 18:17 | 48.11803 | 16.55458 | 609 ft | 9 kts | 126° |
| 2026-04-21 18:18 | 48.11771 | 16.55551 | 616 ft | 13 kts | 116° |
| 2026-04-21 18:18 | 48.11721 | 16.55706 | 615 ft | 20 kts | 116° |
| 2026-04-21 18:18 | 48.11653 | 16.55913 | 617 ft | 23 kts | 116° |
| 2026-04-21 18:18 | 48.11581 | 16.56134 | 612 ft | 24 kts | 116° |
| 2026-04-21 18:19 | 48.11505 | 16.56367 | 615 ft | 26 kts | 116° |
| 2026-04-21 18:19 | 48.11426 | 16.56612 | 618 ft | 27 kts | 116° |
| 2026-04-21 18:19 | 48.11342 | 16.56869 | 617 ft | 27 kts | 117° |
| 2026-04-21 18:19 | 48.11263 | 16.57110 | 614 ft | 26 kts | 116° |
| 2026-04-21 18:20 | 48.11191 | 16.57238 | 615 ft | 13 kts | 183° |
| 2026-04-21 18:20 | 48.11118 | 16.57189 | 614 ft | 11 kts | 207° |
| 2026-04-21 18:20 | 48.11059 | 16.57136 | 615 ft | 9 kts | 231° |
| 2026-04-21 18:20 | 48.11070 | 16.57056 | 622 ft | 11 kts | 296° |
| 2026-04-21 18:21 | 48.11188 | 16.56696 | 620 ft | 75 kts | 296° |
| 2026-04-21 18:21 | 48.11513 | 16.55691 | 611 ft | 137 kts | 295° |
| 2026-04-21 18:21 | 48.11972 | 16.54279 | 1010 ft | 151 kts | 299° |
| 2026-04-21 18:21 | 48.12215 | 16.52739 | 1707 ft | 161 kts | 264° |
| 2026-04-21 18:22 | 48.11697 | 16.51216 | 2321 ft | 174 kts | 227° |
| 2026-04-21 18:22 | 48.10668 | 16.50055 | 2641 ft | 197 kts | 216° |
| 2026-04-21 18:22 | 48.09458 | 16.48852 | 2939 ft | 220 kts | 215° |
| 2026-04-21 18:22 | 48.08104 | 16.47521 | 3264 ft | 246 kts | 215° |
| 2026-04-21 18:23 | 48.06673 | 16.45915 | 3700 ft | 268 kts | 220° |
| 2026-04-21 18:23 | 48.05220 | 16.44086 | 4469 ft | 277 kts | 222° |
| 2026-04-21 18:23 | 48.03761 | 16.42179 | 5392 ft | 280 kts | 223° |
| 2026-04-21 18:23 | 48.02296 | 16.40239 | 6323 ft | 283 kts | 223° |
| 2026-04-21 18:24 | 48.00814 | 16.38279 | 7211 ft | 286 kts | 223° |
| 2026-04-21 18:24 | 47.99317 | 16.36307 | 8099 ft | 288 kts | 223° |
| 2026-04-21 18:24 | 47.97848 | 16.34256 | 8978 ft | 290 kts | 228° |
| 2026-04-21 18:24 | 47.96469 | 16.32039 | 9861 ft | 293 kts | 230° |
| 2026-04-21 18:25 | 47.95103 | 16.29753 | 10541 ft | 302 kts | 231° |
| 2026-04-21 18:25 | 47.93682 | 16.27337 | 10788 ft | 325 kts | 231° |
| 2026-04-21 18:25 | 47.92152 | 16.24730 | 11213 ft | 340 kts | 231° |
| 2026-04-21 18:25 | 47.90577 | 16.22064 | 11932 ft | 345 kts | 230° |
| 2026-04-21 18:26 | 47.88980 | 16.19382 | 12701 ft | 348 kts | 230° |
| 2026-04-21 18:26 | 47.87363 | 16.16680 | 13474 ft | 351 kts | 230° |
| 2026-04-21 18:26 | 47.85731 | 16.13963 | 14206 ft | 353 kts | 230° |
| 2026-04-21 18:26 | 47.84084 | 16.11226 | 14902 ft | 356 kts | 230° |
| 2026-04-21 18:27 | 47.82430 | 16.08476 | 15590 ft | 358 kts | 230° |
| 2026-04-21 18:27 | 47.80762 | 16.05712 | 16259 ft | 360 kts | 230° |
| 2026-04-21 18:27 | 47.79083 | 16.02937 | 16936 ft | 362 kts | 230° |
| 2026-04-21 18:27 | 47.77391 | 16.00137 | 17614 ft | 365 kts | 230° |
| 2026-04-21 18:28 | 47.75691 | 15.97321 | 18286 ft | 367 kts | 231° |
| 2026-04-21 18:28 | 47.73979 | 15.94486 | 18878 ft | 370 kts | 231° |
| 2026-04-21 18:28 | 47.72250 | 15.91628 | 19441 ft | 373 kts | 231° |
| 2026-04-21 18:28 | 47.70511 | 15.88758 | 20008 ft | 375 kts | 231° |
| 2026-04-21 18:29 | 47.68757 | 15.85869 | 20551 ft | 378 kts | 231° |
| 2026-04-21 18:29 | 47.66988 | 15.82957 | 21121 ft | 381 kts | 231° |
| 2026-04-21 18:29 | 47.65209 | 15.80029 | 21679 ft | 384 kts | 231° |
| 2026-04-21 18:29 | 47.63416 | 15.77080 | 22219 ft | 386 kts | 231° |
| 2026-04-21 18:30 | 47.61606 | 15.74112 | 22734 ft | 389 kts | 231° |
| 2026-04-21 18:30 | 47.59784 | 15.71127 | 23258 ft | 392 kts | 231° |
| 2026-04-21 18:30 | 47.57950 | 15.68124 | 23768 ft | 394 kts | 231° |
| 2026-04-21 18:30 | 47.56106 | 15.65102 | 24122 ft | 397 kts | 231° |
| 2026-04-21 18:31 | 47.54248 | 15.62060 | 24552 ft | 399 kts | 231° |
| 2026-04-21 18:31 | 47.52380 | 15.59003 | 24964 ft | 401 kts | 231° |
| 2026-04-21 18:31 | 47.50532 | 15.55901 | 25368 ft | 402 kts | 235° |
| 2026-04-21 18:31 | 47.48969 | 15.52490 | 25751 ft | 401 kts | 244° |
| 2026-04-21 18:32 | 47.47796 | 15.48762 | 26109 ft | 399 kts | 252° |
| 2026-04-21 18:32 | 47.46990 | 15.44841 | 26483 ft | 400 kts | 257° |
| 2026-04-21 18:32 | 47.46229 | 15.40873 | 26860 ft | 402 kts | 256° |
| 2026-04-21 18:32 | 47.45468 | 15.36945 | 27219 ft | 404 kts | 256° |
| 2026-04-21 18:33 | 47.44686 | 15.32939 | 27580 ft | 407 kts | 256° |
| 2026-04-21 18:33 | 47.43900 | 15.28918 | 27937 ft | 409 kts | 256° |
| 2026-04-21 18:33 | 47.43107 | 15.24874 | 28280 ft | 411 kts | 256° |
| 2026-04-21 18:33 | 47.42309 | 15.20815 | 28602 ft | 413 kts | 256° |
| 2026-04-21 18:34 | 47.41504 | 15.16734 | 28915 ft | 415 kts | 256° |
| 2026-04-21 18:34 | 47.40693 | 15.12634 | 29223 ft | 417 kts | 256° |
| 2026-04-21 18:34 | 47.39878 | 15.08524 | 29525 ft | 418 kts | 256° |
| 2026-04-21 18:34 | 47.39054 | 15.04398 | 29821 ft | 421 kts | 256° |
| 2026-04-21 18:35 | 47.38495 | 15.01597 | 30013 ft | 422 kts | 256° |
| 2026-04-21 18:35 | 47.37395 | 14.96080 | 30353 ft | 424 kts | 256° |
| 2026-04-21 18:35 | 47.36559 | 14.91888 | 30569 ft | 426 kts | 256° |
| 2026-04-21 18:35 | 47.35720 | 14.87685 | 30788 ft | 428 kts | 256° |
| 2026-04-21 18:36 | 47.34876 | 14.83464 | 30991 ft | 430 kts | 256° |
| 2026-04-21 18:36 | 47.34028 | 14.79232 | 31224 ft | 431 kts | 256° |
| 2026-04-21 18:36 | 47.33177 | 14.75000 | 31503 ft | 430 kts | 256° |
| 2026-04-21 18:36 | 47.32327 | 14.70776 | 31775 ft | 430 kts | 256° |
| 2026-04-21 18:37 | 47.31478 | 14.66554 | 32080 ft | 430 kts | 256° |
| 2026-04-21 18:37 | 47.30628 | 14.62337 | 32356 ft | 429 kts | 256° |
| 2026-04-21 18:37 | 47.29774 | 14.58122 | 32627 ft | 429 kts | 256° |
| 2026-04-21 18:37 | 47.28917 | 14.53914 | 32907 ft | 429 kts | 256° |
| 2026-04-21 18:38 | 47.28056 | 14.49704 | 33102 ft | 429 kts | 256° |
| 2026-04-21 18:38 | 47.26351 | 14.41395 | 33144 ft | 421 kts | 256° |
| 2026-04-21 18:39 | 47.24662 | 14.33165 | 33149 ft | 419 kts | 256° |
| 2026-04-21 18:39 | 47.22968 | 14.24962 | 33153 ft | 419 kts | 256° |
| 2026-04-21 18:40 | 47.21271 | 14.16776 | 33157 ft | 418 kts | 256° |
| 2026-04-21 18:40 | 47.19861 | 14.09979 | 33150 ft | 418 kts | 256° |
| 2026-04-21 18:41 | 47.17867 | 14.00443 | 33144 ft | 417 kts | 256° |
| 2026-04-21 18:41 | 47.16167 | 13.92345 | 33140 ft | 417 kts | 256° |
| 2026-04-21 18:42 | 47.14450 | 13.84152 | 33139 ft | 417 kts | 256° |
| 2026-04-21 18:42 | 47.12750 | 13.76081 | 33138 ft | 416 kts | 256° |
| 2026-04-21 18:43 | 47.11026 | 13.67970 | 33143 ft | 416 kts | 256° |
| 2026-04-21 18:43 | 47.09292 | 13.59884 | 33143 ft | 415 kts | 256° |
| 2026-04-21 18:44 | 47.07569 | 13.51815 | 33143 ft | 414 kts | 256° |
| 2026-04-21 18:44 | 47.05843 | 13.43766 | 33138 ft | 413 kts | 256° |
| 2026-04-21 18:45 | 47.04109 | 13.35742 | 33136 ft | 412 kts | 256° |
| 2026-04-21 18:45 | 47.02376 | 13.27741 | 33138 ft | 412 kts | 256° |
| 2026-04-21 18:46 | 47.00641 | 13.19752 | 33138 ft | 412 kts | 256° |
| 2026-04-21 18:46 | 46.98905 | 13.11776 | 33132 ft | 411 kts | 256° |
| 2026-04-21 18:47 | 46.97159 | 13.03815 | 33129 ft | 410 kts | 256° |
| 2026-04-21 18:47 | 46.95415 | 12.95871 | 33135 ft | 410 kts | 256° |
| 2026-04-21 18:48 | 46.93665 | 12.87951 | 33124 ft | 408 kts | 256° |
| 2026-04-21 18:48 | 46.92208 | 12.81393 | 33128 ft | 407 kts | 256° |
| 2026-04-21 18:49 | 46.90462 | 12.73526 | 33113 ft | 406 kts | 256° |
| 2026-04-21 18:49 | 46.89003 | 12.66944 | 33097 ft | 406 kts | 256° |
| 2026-04-21 18:50 | 46.86966 | 12.57832 | 33078 ft | 406 kts | 256° |
| 2026-04-21 18:50 | 46.85205 | 12.50003 | 33057 ft | 405 kts | 256° |
| 2026-04-21 18:51 | 46.83444 | 12.42186 | 33045 ft | 405 kts | 256° |
| 2026-04-21 18:51 | 46.81677 | 12.34373 | 33033 ft | 405 kts | 256° |
| 2026-04-21 18:52 | 46.79745 | 12.26640 | 33047 ft | 410 kts | 249° |
| 2026-04-21 18:52 | 46.77185 | 12.19203 | 33048 ft | 410 kts | 249° |
| 2026-04-21 18:53 | 46.74648 | 12.11765 | 33047 ft | 409 kts | 249° |
| 2026-04-21 18:53 | 46.72111 | 12.04351 | 33050 ft | 409 kts | 249° |
| 2026-04-21 18:54 | 46.69556 | 11.96949 | 33053 ft | 409 kts | 249° |
| 2026-04-21 18:54 | 46.66989 | 11.89569 | 33050 ft | 408 kts | 249° |
| 2026-04-21 18:55 | 46.64867 | 11.83457 | 33033 ft | 407 kts | 249° |
| 2026-04-21 18:55 | 46.61884 | 11.74857 | 33039 ft | 407 kts | 249° |
| 2026-04-21 18:56 | 46.59340 | 11.67560 | 33031 ft | 407 kts | 249° |
| 2026-04-21 18:56 | 46.56774 | 11.60235 | 33027 ft | 407 kts | 249° |
| 2026-04-21 18:57 | 46.54211 | 11.52919 | 33017 ft | 406 kts | 249° |
| 2026-04-21 18:57 | 46.51651 | 11.45632 | 32785 ft | 404 kts | 250° |
| 2026-04-21 18:57 | 46.50374 | 11.41997 | 32525 ft | 403 kts | 249° |
| 2026-04-21 18:58 | 46.49099 | 11.38377 | 32258 ft | 402 kts | 250° |
| 2026-04-21 18:58 | 46.47827 | 11.34773 | 32002 ft | 400 kts | 250° |
| 2026-04-21 18:58 | 46.46559 | 11.31192 | 31734 ft | 397 kts | 250° |
| 2026-04-21 18:58 | 46.45303 | 11.27649 | 31475 ft | 394 kts | 250° |
| 2026-04-21 18:59 | 46.44051 | 11.24122 | 31214 ft | 392 kts | 250° |
| 2026-04-21 18:59 | 46.42807 | 11.20623 | 30963 ft | 390 kts | 250° |
| 2026-04-21 18:59 | 46.41545 | 11.17062 | 30718 ft | 405 kts | 250° |
| 2026-04-21 18:59 | 46.40244 | 11.13382 | 30356 ft | 412 kts | 250° |
| 2026-04-21 19:00 | 46.38932 | 11.09695 | 29975 ft | 411 kts | 250° |
| 2026-04-21 19:00 | 46.37620 | 11.06027 | 29532 ft | 409 kts | 250° |
| 2026-04-21 19:00 | 46.36311 | 11.02386 | 29099 ft | 406 kts | 250° |
| 2026-04-21 19:00 | 46.35007 | 10.98768 | 28678 ft | 404 kts | 250° |
| 2026-04-21 19:01 | 46.33710 | 10.95170 | 28258 ft | 402 kts | 250° |
| 2026-04-21 19:01 | 46.32423 | 10.91591 | 27849 ft | 400 kts | 250° |
| 2026-04-21 19:01 | 46.31143 | 10.88032 | 27443 ft | 397 kts | 250° |
| 2026-04-21 19:01 | 46.29874 | 10.84504 | 27036 ft | 394 kts | 250° |
| 2026-04-21 19:02 | 46.28638 | 10.80984 | 26643 ft | 391 kts | 250° |
| 2026-04-21 19:02 | 46.27424 | 10.77476 | 26261 ft | 389 kts | 251° |
| 2026-04-21 19:02 | 46.26206 | 10.73925 | 25832 ft | 404 kts | 250° |
| 2026-04-21 19:02 | 46.24952 | 10.70261 | 25309 ft | 407 kts | 250° |
| 2026-04-21 19:03 | 46.23688 | 10.66597 | 24832 ft | 407 kts | 250° |
| 2026-04-21 19:03 | 46.22421 | 10.62955 | 24347 ft | 405 kts | 249° |
| 2026-04-21 19:03 | 46.21154 | 10.59340 | 23867 ft | 402 kts | 249° |
| 2026-04-21 19:03 | 46.19892 | 10.55755 | 23353 ft | 400 kts | 249° |
| 2026-04-21 19:04 | 46.18631 | 10.52185 | 23029 ft | 399 kts | 249° |
| 2026-04-21 19:04 | 46.17371 | 10.48619 | 23025 ft | 399 kts | 249° |
| 2026-04-21 19:04 | 46.16112 | 10.45054 | 23025 ft | 399 kts | 249° |
| 2026-04-21 19:04 | 46.14856 | 10.41482 | 23012 ft | 398 kts | 250° |
| 2026-04-21 19:05 | 46.13603 | 10.37921 | 22721 ft | 398 kts | 249° |
| 2026-04-21 19:05 | 46.12350 | 10.34367 | 22446 ft | 397 kts | 249° |
| 2026-04-21 19:05 | 46.11222 | 10.31173 | 22189 ft | 395 kts | 249° |
| 2026-04-21 19:05 | 46.10003 | 10.27708 | 21926 ft | 395 kts | 249° |
| 2026-04-21 19:06 | 46.08776 | 10.24237 | 21656 ft | 393 kts | 249° |
| 2026-04-21 19:06 | 46.07533 | 10.20739 | 21383 ft | 392 kts | 249° |
| 2026-04-21 19:06 | 46.06290 | 10.17251 | 21008 ft | 392 kts | 249° |
| 2026-04-21 19:06 | 46.05014 | 10.13799 | 20336 ft | 391 kts | 244° |
| 2026-04-21 19:07 | 46.03306 | 10.10713 | 19680 ft | 399 kts | 231° |
| 2026-04-21 19:07 | 46.01142 | 10.08170 | 19040 ft | 402 kts | 223° |
| 2026-04-21 19:07 | 45.98924 | 10.05746 | 18409 ft | 399 kts | 223° |
| 2026-04-21 19:07 | 45.96722 | 10.03342 | 17704 ft | 396 kts | 223° |
| 2026-04-21 19:08 | 45.94536 | 10.00956 | 17003 ft | 394 kts | 222° |
| 2026-04-21 19:08 | 45.92355 | 9.98574 | 16312 ft | 394 kts | 222° |
| 2026-04-21 19:08 | 45.90176 | 9.96196 | 15628 ft | 389 kts | 221° |
| 2026-04-21 19:08 | 45.88068 | 9.93901 | 15021 ft | 371 kts | 221° |
| 2026-04-21 19:09 | 45.86067 | 9.91726 | 14595 ft | 351 kts | 221° |
| 2026-04-21 19:09 | 45.84164 | 9.89660 | 14208 ft | 335 kts | 219° |
| 2026-04-21 19:09 | 45.82130 | 9.88156 | 13827 ft | 327 kts | 200° |
| 2026-04-21 19:09 | 45.79954 | 9.87440 | 13418 ft | 315 kts | 195° |
| 2026-04-21 19:10 | 45.77833 | 9.86816 | 13014 ft | 309 kts | 194° |
| 2026-04-21 19:10 | 45.75736 | 9.86203 | 12611 ft | 306 kts | 194° |
| 2026-04-21 19:10 | 45.73652 | 9.85593 | 12223 ft | 305 kts | 194° |
| 2026-04-21 19:10 | 45.71577 | 9.84983 | 11839 ft | 304 kts | 194° |
| 2026-04-21 19:11 | 45.69508 | 9.84370 | 11499 ft | 302 kts | 193° |
| 2026-04-21 19:11 | 45.67458 | 9.83760 | 11171 ft | 301 kts | 193° |
| 2026-04-21 19:11 | 45.65408 | 9.83155 | 10792 ft | 300 kts | 193° |
| 2026-04-21 19:11 | 45.63369 | 9.82557 | 10419 ft | 299 kts | 192° |
| 2026-04-21 19:12 | 45.62022 | 9.82163 | 10177 ft | 298 kts | 192° |
| 2026-04-21 19:12 | 45.59309 | 9.81374 | 9670 ft | 296 kts | 192° |
| 2026-04-21 19:12 | 45.57294 | 9.80789 | 9269 ft | 295 kts | 192° |
| 2026-04-21 19:12 | 45.55286 | 9.80203 | 8875 ft | 293 kts | 192° |
| 2026-04-21 19:13 | 45.53280 | 9.79737 | 8480 ft | 292 kts | 182° |
| 2026-04-21 19:13 | 45.51272 | 9.79934 | 8094 ft | 289 kts | 170° |
| 2026-04-21 19:13 | 45.49290 | 9.80385 | 7614 ft | 289 kts | 170° |
| 2026-04-21 19:13 | 45.47329 | 9.80827 | 7059 ft | 281 kts | 170° |
| 2026-04-21 19:14 | 45.45424 | 9.81281 | 6513 ft | 273 kts | 165° |
| 2026-04-21 19:14 | 45.43733 | 9.82362 | 5982 ft | 262 kts | 141° |
| 2026-04-21 19:14 | 45.42542 | 9.84149 | 5724 ft | 243 kts | 121° |
| 2026-04-21 19:14 | 45.41911 | 9.86305 | 5482 ft | 231 kts | 101° |
| 2026-04-21 19:15 | 45.41839 | 9.88533 | 5312 ft | 222 kts | 83° |
| 2026-04-21 19:15 | 45.42269 | 9.90591 | 5132 ft | 220 kts | 64° |
| 2026-04-21 19:15 | 45.43152 | 9.92358 | 4960 ft | 220 kts | 46° |
| 2026-04-21 19:15 | 45.44402 | 9.93626 | 4783 ft | 223 kts | 27° |
| 2026-04-21 19:16 | 45.45866 | 9.94385 | 4603 ft | 224 kts | 21° |
| 2026-04-21 19:16 | 45.47341 | 9.95103 | 4442 ft | 223 kts | 22° |
| 2026-04-21 19:16 | 45.48811 | 9.95824 | 4343 ft | 223 kts | 22° |
| 2026-04-21 19:16 | 45.50329 | 9.96312 | 4239 ft | 226 kts | 6° |
| 2026-04-21 19:17 | 45.53489 | 9.96197 | 4034 ft | 227 kts | 1° |
| 2026-04-21 19:17 | 45.55045 | 9.96122 | 3996 ft | 219 kts | 1° |
| 2026-04-21 19:17 | 45.56556 | 9.96049 | 4003 ft | 216 kts | 1° |
| 2026-04-21 19:18 | 45.58051 | 9.95979 | 4001 ft | 210 kts | 1° |
| 2026-04-21 19:18 | 45.59481 | 9.95893 | 4032 ft | 204 kts | 357° |
| 2026-04-21 19:18 | 45.60839 | 9.95334 | 3963 ft | 205 kts | 335° |
| 2026-04-21 19:18 | 45.61963 | 9.94125 | 3821 ft | 201 kts | 313° |
| 2026-04-21 19:19 | 45.62690 | 9.92458 | 3610 ft | 198 kts | 291° |
| 2026-04-21 19:19 | 45.63068 | 9.90574 | 3368 ft | 197 kts | 285° |
| 2026-04-21 19:19 | 45.63421 | 9.88688 | 3114 ft | 196 kts | 285° |
| 2026-04-21 19:19 | 45.63772 | 9.86816 | 2850 ft | 194 kts | 285° |
| 2026-04-21 19:20 | 45.64120 | 9.84960 | 2589 ft | 193 kts | 285° |
| 2026-04-21 19:20 | 45.64466 | 9.83116 | 2331 ft | 191 kts | 285° |
| 2026-04-21 19:20 | 45.64807 | 9.81294 | 2071 ft | 187 kts | 285° |
| 2026-04-21 19:20 | 45.65132 | 9.79555 | 1825 ft | 176 kts | 285° |
| 2026-04-21 19:21 | 45.65440 | 9.77906 | 1577 ft | 166 kts | 286° |
| 2026-04-21 19:21 | 45.65727 | 9.76368 | 1387 ft | 154 kts | 285° |
| 2026-04-21 19:21 | 45.65997 | 9.74923 | 1175 ft | 147 kts | 285° |
| 2026-04-21 19:21 | 45.66258 | 9.73523 | 982 ft | 145 kts | 286° |
| 2026-04-21 19:22 | 45.66514 | 9.72136 | 810 ft | 143 kts | 285° |
| 2026-04-21 19:22 | 45.66746 | 9.70897 | 787 ft | 106 kts | 284° |
| 2026-04-21 19:22 | 45.66889 | 9.70126 | 787 ft | 62 kts | 285° |
| 2026-04-21 19:22 | 45.66990 | 9.69586 | 787 ft | 50 kts | 285° |
| 2026-04-21 19:23 | 45.67053 | 9.69240 | 787 ft | 23 kts | 284° |
| 2026-04-21 19:23 | 45.67052 | 9.69063 | 787 ft | 10 kts | 251° |
| 2026-04-21 19:23 | 45.67014 | 9.69004 | 787 ft | 8 kts | 198° |
| 2026-04-21 19:23 | 45.66967 | 9.68985 | 787 ft | 6 kts | 195° |
| 2026-04-21 19:24 | 45.66921 | 9.69003 | 787 ft | 9 kts | 140° |
| 2026-04-21 19:24 | 45.66903 | 9.69108 | 787 ft | 14 kts | 96° |
| 2026-04-21 19:24 | 45.66878 | 9.69276 | 787 ft | 21 kts | 104° |
| 2026-04-21 19:24 | 45.66842 | 9.69467 | 787 ft | 16 kts | 104° |
| 2026-04-21 19:25 | 45.66824 | 9.69566 | 787 ft | 5 kts | 105° |
| 2026-04-21 19:25 | 45.66815 | 9.69609 | 787 ft | 2 kts | 107° |
| 2026-04-21 19:25 | 45.66808 | 9.69616 | 787 ft | 1 kts | 146° |
| 2026-04-21 19:25 | 45.66778 | 9.69638 | 787 ft | 9 kts | 167° |
| 2026-04-21 19:26 | 45.66745 | 9.69631 | 787 ft | 3 kts | 196° |
| 2026-04-21 19:26 | 45.66724 | 9.69622 | 787 ft | 4 kts | 195° |
| 2026-04-21 19:26 | 45.66715 | 9.69619 | 787 ft | 0 kts | 195° |